sensor_id;sensor_type;location;lat;lon;timestamp;pressure;altitude;pressure_sealevel;temperature;humidity
63006;BME280;53704;52.532;6.426;2023-05-01T00:00:21;101868.56;;;8.82;100.00
63006;BME280;53704;52.532;6.426;2023-05-01T00:02:46;101868.63;;;8.59;100.00
63006;BME280;53704;52.532;6.426;2023-05-01T00:05:12;101865.81;;;8.93;100.00
63006;BME280;53704;52.532;6.426;2023-05-01T00:07:37;101861.06;;;8.97;100.00
63006;BME280;53704;52.532;6.426;2023-05-01T00:10:03;101866.75;;;8.82;100.00
63006;BME280;53704;52.532;6.426;2023-05-01T00:12:28;101857.69;;;8.83;100.00
63006;BME280;53704;52.532;6.426;2023-05-01T00:14:53;101852.16;;;8.64;100.00
63006;BME280;53704;52.532;6.426;2023-05-01T00:17:19;101856.50;;;8.65;100.00
63006;BME280;53704;52.532;6.426;2023-05-01T00:19:50;101853.50;;;8.58;100.00
63006;BME280;53704;52.532;6.426;2023-05-01T00:22:16;101848.72;;;8.73;100.00
63006;BME280;53704;52.532;6.426;2023-05-01T00:24:41;101842.53;;;8.50;100.00
63006;BME280;53704;52.532;6.426;2023-05-01T00:27:07;101844.00;;;8.54;100.00
63006;BME280;53704;52.532;6.426;2023-05-01T00:29:32;101839.00;;;8.38;100.00
63006;BME280;53704;52.532;6.426;2023-05-01T00:31:58;101841.06;;;8.46;100.00
63006;BME280;53704;52.532;6.426;2023-05-01T00:34:24;101836.56;;;8.46;100.00
63006;BME280;53704;52.532;6.426;2023-05-01T00:36:50;101831.31;;;8.33;100.00
63006;BME280;53704;52.532;6.426;2023-05-01T00:39:15;101835.81;;;8.44;100.00
63006;BME280;53704;52.532;6.426;2023-05-01T00:41:41;101834.31;;;8.63;100.00
63006;BME280;53704;52.532;6.426;2023-05-01T00:44:06;101826.94;;;8.44;100.00
63006;BME280;53704;52.532;6.426;2023-05-01T00:46:33;101824.97;;;8.57;100.00
63006;BME280;53704;52.532;6.426;2023-05-01T00:48:58;101819.97;;;8.41;100.00
63006;BME280;53704;52.532;6.426;2023-05-01T00:51:25;101822.06;;;8.26;100.00
63006;BME280;53704;52.532;6.426;2023-05-01T00:53:53;101811.09;;;8.18;100.00
63006;BME280;53704;52.532;6.426;2023-05-01T00:56:20;101806.97;;;7.57;100.00
63006;BME280;53704;52.532;6.426;2023-05-01T00:58:49;101802.81;;;7.42;100.00
63006;BME280;53704;52.532;6.426;2023-05-01T01:01:16;101804.91;;;7.50;100.00
63006;BME280;53704;52.532;6.426;2023-05-01T01:03:41;101805.72;;;7.28;100.00
63006;BME280;53704;52.532;6.426;2023-05-01T01:06:18;101797.25;;;7.21;100.00
63006;BME280;53704;52.532;6.426;2023-05-01T01:08:58;101801.31;;;7.27;100.00
63006;BME280;53704;52.532;6.426;2023-05-01T01:14:11;101788.38;;;7.20;100.00
63006;BME280;53704;52.532;6.426;2023-05-01T01:21:57;101775.09;;;7.07;100.00
63006;BME280;53704;52.532;6.426;2023-05-01T01:25:04;101773.66;;;6.79;100.00
63006;BME280;53704;52.532;6.426;2023-05-01T01:28:00;101774.13;;;6.73;100.00
63006;BME280;53704;52.532;6.426;2023-05-01T01:33:44;101765.56;;;7.03;100.00
63006;BME280;53704;52.532;6.426;2023-05-01T01:36:18;101766.72;;;7.23;100.00
63006;BME280;53704;52.532;6.426;2023-05-01T01:39:04;101762.09;;;7.25;100.00
63006;BME280;53704;52.532;6.426;2023-05-01T01:41:34;101760.13;;;7.16;100.00
63006;BME280;53704;52.532;6.426;2023-05-01T01:44:08;101756.84;;;7.24;100.00
63006;BME280;53704;52.532;6.426;2023-05-01T01:46:37;101762.25;;;6.88;100.00
63006;BME280;53704;52.532;6.426;2023-05-01T01:49:12;101748.69;;;7.14;100.00
63006;BME280;53704;52.532;6.426;2023-05-01T01:51:40;101747.75;;;7.27;100.00
63006;BME280;53704;52.532;6.426;2023-05-01T01:54:08;101751.03;;;7.30;100.00
63006;BME280;53704;52.532;6.426;2023-05-01T01:56:36;101734.56;;;7.01;100.00
63006;BME280;53704;52.532;6.426;2023-05-01T01:59:04;101737.38;;;7.22;100.00
63006;BME280;53704;52.532;6.426;2023-05-01T02:01:33;101740.19;;;7.20;100.00
63006;BME280;53704;52.532;6.426;2023-05-01T02:03:59;101739.28;;;6.97;100.00
63006;BME280;53704;52.532;6.426;2023-05-01T02:06:26;101729.13;;;6.78;100.00
63006;BME280;53704;52.532;6.426;2023-05-01T02:08:53;101725.09;;;6.73;100.00
63006;BME280;53704;52.532;6.426;2023-05-01T02:11:20;101721.88;;;6.92;100.00
63006;BME280;53704;52.532;6.426;2023-05-01T02:13:48;101719.19;;;6.92;100.00
63006;BME280;53704;52.532;6.426;2023-05-01T02:16:13;101716.50;;;6.80;100.00
63006;BME280;53704;52.532;6.426;2023-05-01T02:18:41;101715.00;;;6.76;100.00
63006;BME280;53704;52.532;6.426;2023-05-01T02:21:09;101712.31;;;6.65;100.00
63006;BME280;53704;52.532;6.426;2023-05-01T02:23:37;101708.56;;;6.67;100.00
63006;BME280;53704;52.532;6.426;2023-05-01T02:26:03;101697.63;;;6.46;100.00
63006;BME280;53704;52.532;6.426;2023-05-01T02:28:29;101697.56;;;6.59;100.00
63006;BME280;53704;52.532;6.426;2023-05-01T02:30:56;101691.81;;;6.52;100.00
63006;BME280;53704;52.532;6.426;2023-05-01T02:33:21;101683.06;;;6.50;100.00
63006;BME280;53704;52.532;6.426;2023-05-01T02:35:47;101679.38;;;6.40;100.00
63006;BME280;53704;52.532;6.426;2023-05-01T02:38:14;101680.94;;;6.31;100.00
63006;BME280;53704;52.532;6.426;2023-05-01T02:40:44;101680.88;;;6.44;100.00
63006;BME280;53704;52.532;6.426;2023-05-01T02:43:12;101676.13;;;6.48;100.00
63006;BME280;53704;52.532;6.426;2023-05-01T02:45:40;101669.31;;;6.44;100.00
63006;BME280;53704;52.532;6.426;2023-05-01T02:48:08;101668.19;;;6.35;100.00
63006;BME280;53704;52.532;6.426;2023-05-01T02:50:36;101657.13;;;6.40;100.00
63006;BME280;53704;52.532;6.426;2023-05-01T02:53:05;101655.66;;;6.36;100.00
63006;BME280;53704;52.532;6.426;2023-05-01T02:55:31;101653.66;;;6.50;100.00
63006;BME280;53704;52.532;6.426;2023-05-01T02:57:57;101642.22;;;6.48;100.00
63006;BME280;53704;52.532;6.426;2023-05-01T03:00:24;101634.78;;;6.16;100.00
63006;BME280;53704;52.532;6.426;2023-05-01T03:02:49;101637.78;;;6.25;100.00
63006;BME280;53704;52.532;6.426;2023-05-01T03:05:14;101636.09;;;6.35;100.00
63006;BME280;53704;52.532;6.426;2023-05-01T03:07:40;101634.44;;;6.21;100.00
63006;BME280;53704;52.532;6.426;2023-05-01T03:10:06;101635.78;;;6.15;100.00
63006;BME280;53704;52.532;6.426;2023-05-01T03:12:32;101633.91;;;6.05;100.00
63006;BME280;53704;52.532;6.426;2023-05-01T03:14:58;101638.72;;;6.24;100.00
63006;BME280;53704;52.532;6.426;2023-05-01T03:17:23;101628.25;;;6.21;100.00
63006;BME280;53704;52.532;6.426;2023-05-01T03:19:49;101631.63;;;6.11;100.00
63006;BME280;53704;52.532;6.426;2023-05-01T03:22:15;101622.88;;;6.09;100.00
63006;BME280;53704;52.532;6.426;2023-05-01T03:24:41;101625.09;;;6.15;100.00
63006;BME280;53704;52.532;6.426;2023-05-01T03:27:07;101609.66;;;6.19;100.00
63006;BME280;53704;52.532;6.426;2023-05-01T03:29:33;101612.97;;;6.34;100.00
63006;BME280;53704;52.532;6.426;2023-05-01T03:31:59;101612.91;;;6.47;100.00
63006;BME280;53704;52.532;6.426;2023-05-01T03:34:24;101607.91;;;6.31;100.00
63006;BME280;53704;52.532;6.426;2023-05-01T03:36:50;101606.63;;;6.24;100.00
63006;BME280;53704;52.532;6.426;2023-05-01T03:39:16;101603.78;;;6.49;100.00
63006;BME280;53704;52.532;6.426;2023-05-01T03:41:41;101604.69;;;6.26;100.00
63006;BME280;53704;52.532;6.426;2023-05-01T03:44:07;101604.53;;;6.16;100.00
63006;BME280;53704;52.532;6.426;2023-05-01T03:46:32;101604.97;;;5.98;100.00
63006;BME280;53704;52.532;6.426;2023-05-01T03:48:58;101602.22;;;5.87;100.00
63006;BME280;53704;52.532;6.426;2023-05-01T03:51:23;101599.16;;;5.80;100.00
63006;BME280;53704;52.532;6.426;2023-05-01T03:53:49;101596.81;;;5.76;100.00
63006;BME280;53704;52.532;6.426;2023-05-01T03:56:16;101589.13;;;5.71;100.00
63006;BME280;53704;52.532;6.426;2023-05-01T03:58:42;101596.53;;;5.92;100.00
63006;BME280;53704;52.532;6.426;2023-05-01T04:01:08;101589.75;;;5.75;100.00
63006;BME280;53704;52.532;6.426;2023-05-01T04:03:33;101589.69;;;5.88;100.00
63006;BME280;53704;52.532;6.426;2023-05-01T04:05:59;101592.25;;;5.65;100.00
63006;BME280;53704;52.532;6.426;2023-05-01T04:08:24;101581.97;;;5.48;100.00
63006;BME280;53704;52.532;6.426;2023-05-01T04:10:49;101580.38;;;5.69;100.00
63006;BME280;53704;52.532;6.426;2023-05-01T04:13:15;101592.03;;;5.68;100.00
63006;BME280;53704;52.532;6.426;2023-05-01T04:15:44;101582.50;;;6.01;100.00
63006;BME280;53704;52.532;6.426;2023-05-01T04:18:13;101582.66;;;5.87;100.00
63006;BME280;53704;52.532;6.426;2023-05-01T04:20:39;101572.34;;;5.93;100.00
63006;BME280;53704;52.532;6.426;2023-05-01T04:23:04;101578.13;;;6.00;100.00
63006;BME280;53704;52.532;6.426;2023-05-01T04:25:30;101579.50;;;5.93;100.00
63006;BME280;53704;52.532;6.426;2023-05-01T04:27:55;101578.28;;;5.86;100.00
63006;BME280;53704;52.532;6.426;2023-05-01T04:30:22;101579.06;;;5.75;100.00
63006;BME280;53704;52.532;6.426;2023-05-01T04:32:47;101569.44;;;5.72;100.00
63006;BME280;53704;52.532;6.426;2023-05-01T04:35:12;101572.47;;;5.43;100.00
63006;BME280;53704;52.532;6.426;2023-05-01T04:37:38;101568.91;;;5.56;100.00
63006;BME280;53704;52.532;6.426;2023-05-01T04:40:03;101561.97;;;5.77;100.00
63006;BME280;53704;52.532;6.426;2023-05-01T04:42:32;101569.81;;;5.68;100.00
63006;BME280;53704;52.532;6.426;2023-05-01T04:44:58;101564.28;;;5.58;100.00
63006;BME280;53704;52.532;6.426;2023-05-01T04:47:26;101569.69;;;5.45;100.00
63006;BME280;53704;52.532;6.426;2023-05-01T04:49:53;101557.97;;;5.35;100.00
63006;BME280;53704;52.532;6.426;2023-05-01T04:52:18;101567.28;;;5.53;100.00
63006;BME280;53704;52.532;6.426;2023-05-01T04:54:44;101567.88;;;5.46;100.00
63006;BME280;53704;52.532;6.426;2023-05-01T04:57:09;101561.09;;;5.53;100.00
63006;BME280;53704;52.532;6.426;2023-05-01T04:59:34;101559.00;;;5.69;100.00
63006;BME280;53704;52.532;6.426;2023-05-01T05:02:00;101559.75;;;5.71;100.00
63006;BME280;53704;52.532;6.426;2023-05-01T05:04:25;101563.66;;;5.78;100.00
63006;BME280;53704;52.532;6.426;2023-05-01T05:06:51;101564.44;;;5.92;100.00
63006;BME280;53704;52.532;6.426;2023-05-01T05:09:16;101572.94;;;5.86;100.00
63006;BME280;53704;52.532;6.426;2023-05-01T05:11:42;101570.09;;;6.00;100.00
63006;BME280;53704;52.532;6.426;2023-05-01T05:14:07;101566.75;;;6.21;100.00
63006;BME280;53704;52.532;6.426;2023-05-01T05:16:34;101569.06;;;6.14;100.00
63006;BME280;53704;52.532;6.426;2023-05-01T05:18:59;101572.34;;;6.18;100.00
63006;BME280;53704;52.532;6.426;2023-05-01T05:21:25;101570.69;;;6.28;100.00
63006;BME280;53704;52.532;6.426;2023-05-01T05:23:50;101571.38;;;6.19;100.00
63006;BME280;53704;52.532;6.426;2023-05-01T05:26:15;101563.53;;;6.40;100.00
63006;BME280;53704;52.532;6.426;2023-05-01T05:28:41;101559.03;;;6.40;100.00
63006;BME280;53704;52.532;6.426;2023-05-01T05:31:07;101561.63;;;6.64;100.00
63006;BME280;53704;52.532;6.426;2023-05-01T05:33:32;101555.56;;;6.74;100.00
63006;BME280;53704;52.532;6.426;2023-05-01T05:35:58;101549.69;;;6.46;100.00
63006;BME280;53704;52.532;6.426;2023-05-01T05:38:24;101552.25;;;6.70;100.00
63006;BME280;53704;52.532;6.426;2023-05-01T05:40:49;101559.19;;;6.73;100.00
63006;BME280;53704;52.532;6.426;2023-05-01T05:43:14;101555.41;;;6.64;100.00
63006;BME280;53704;52.532;6.426;2023-05-01T05:45:40;101553.38;;;6.79;100.00
63006;BME280;53704;52.532;6.426;2023-05-01T05:48:05;101551.25;;;7.16;100.00
63006;BME280;53704;52.532;6.426;2023-05-01T05:50:31;101551.53;;;6.91;100.00
63006;BME280;53704;52.532;6.426;2023-05-01T05:52:56;101551.38;;;7.03;100.00
63006;BME280;53704;52.532;6.426;2023-05-01T05:55:22;101546.28;;;7.12;100.00
63006;BME280;53704;52.532;6.426;2023-05-01T05:57:47;101540.50;;;7.39;100.00
63006;BME280;53704;52.532;6.426;2023-05-01T06:00:13;101537.56;;;7.53;100.00
63006;BME280;53704;52.532;6.426;2023-05-01T06:02:40;101547.06;;;7.46;100.00
63006;BME280;53704;52.532;6.426;2023-05-01T06:05:06;101538.66;;;7.83;100.00
63006;BME280;53704;52.532;6.426;2023-05-01T06:07:31;101543.47;;;7.68;100.00
63006;BME280;53704;52.532;6.426;2023-05-01T06:09:57;101544.78;;;7.74;100.00
63006;BME280;53704;52.532;6.426;2023-05-01T06:12:32;101540.59;;;7.81;100.00
63006;BME280;53704;52.532;6.426;2023-05-01T06:14:58;101537.63;;;7.95;100.00
63006;BME280;53704;52.532;6.426;2023-05-01T06:17:24;101536.25;;;8.22;100.00
63006;BME280;53704;52.532;6.426;2023-05-01T06:19:49;101528.00;;;8.14;100.00
63006;BME280;53704;52.532;6.426;2023-05-01T06:22:20;101538.47;;;7.96;100.00
63006;BME280;53704;52.532;6.426;2023-05-01T06:24:45;101532.78;;;8.31;100.00
63006;BME280;53704;52.532;6.426;2023-05-01T06:27:11;101528.81;;;8.26;100.00
63006;BME280;53704;52.532;6.426;2023-05-01T06:29:36;101524.81;;;8.41;100.00
63006;BME280;53704;52.532;6.426;2023-05-01T06:32:02;101528.03;;;8.56;100.00
63006;BME280;53704;52.532;6.426;2023-05-01T06:34:28;101530.19;;;8.41;100.00
63006;BME280;53704;52.532;6.426;2023-05-01T06:36:53;101529.25;;;8.52;100.00
63006;BME280;53704;52.532;6.426;2023-05-01T06:39:19;101526.22;;;8.66;100.00
63006;BME280;53704;52.532;6.426;2023-05-01T06:41:45;101534.88;;;8.70;100.00
63006;BME280;53704;52.532;6.426;2023-05-01T06:44:11;101540.59;;;8.86;100.00
63006;BME280;53704;52.532;6.426;2023-05-01T06:46:37;101532.69;;;8.95;100.00
63006;BME280;53704;52.532;6.426;2023-05-01T06:49:02;101534.97;;;8.99;100.00
63006;BME280;53704;52.532;6.426;2023-05-01T06:51:28;101528.91;;;8.97;100.00
63006;BME280;53704;52.532;6.426;2023-05-01T06:53:54;101534.38;;;8.86;100.00
63006;BME280;53704;52.532;6.426;2023-05-01T06:56:19;101531.75;;;9.05;100.00
63006;BME280;53704;52.532;6.426;2023-05-01T06:58:45;101533.22;;;9.29;100.00
63006;BME280;53704;52.532;6.426;2023-05-01T07:01:13;101530.22;;;9.03;100.00
63006;BME280;53704;52.532;6.426;2023-05-01T07:03:39;101541.03;;;8.92;100.00
63006;BME280;53704;52.532;6.426;2023-05-01T07:06:04;101534.97;;;9.50;100.00
63006;BME280;53704;52.532;6.426;2023-05-01T07:08:30;101527.63;;;9.71;100.00
63006;BME280;53704;52.532;6.426;2023-05-01T07:10:56;101533.09;;;9.50;100.00
63006;BME280;53704;52.532;6.426;2023-05-01T07:13:25;101528.88;;;9.67;100.00
63006;BME280;53704;52.532;6.426;2023-05-01T07:15:50;101517.00;;;9.89;100.00
63006;BME280;53704;52.532;6.426;2023-05-01T07:18:15;101522.38;;;9.99;100.00
63006;BME280;53704;52.532;6.426;2023-05-01T07:20:41;101521.97;;;9.74;100.00
63006;BME280;53704;52.532;6.426;2023-05-01T07:23:07;101522.81;;;9.85;100.00
63006;BME280;53704;52.532;6.426;2023-05-01T07:25:34;101522.06;;;10.22;100.00
63006;BME280;53704;52.532;6.426;2023-05-01T07:28:02;101518.97;;;9.97;100.00
63006;BME280;53704;52.532;6.426;2023-05-01T07:30:28;101514.41;;;10.37;100.00
63006;BME280;53704;52.532;6.426;2023-05-01T07:32:55;101514.72;;;10.14;100.00
63006;BME280;53704;52.532;6.426;2023-05-01T07:35:22;101520.19;;;10.32;100.00
63006;BME280;53704;52.532;6.426;2023-05-01T07:37:48;101514.25;;;10.38;100.00
63006;BME280;53704;52.532;6.426;2023-05-01T07:40:16;101514.38;;;10.46;100.00
63006;BME280;53704;52.532;6.426;2023-05-01T07:42:41;101517.03;;;10.94;100.00
63006;BME280;53704;52.532;6.426;2023-05-01T07:45:07;101518.06;;;10.83;100.00
63006;BME280;53704;52.532;6.426;2023-05-01T07:47:33;101507.91;;;10.39;100.00
63006;BME280;53704;52.532;6.426;2023-05-01T07:49:58;101511.34;;;10.69;100.00
63006;BME280;53704;52.532;6.426;2023-05-01T07:52:25;101511.13;;;11.08;100.00
63006;BME280;53704;52.532;6.426;2023-05-01T07:54:51;101508.81;;;11.23;100.00
63006;BME280;53704;52.532;6.426;2023-05-01T07:57:16;101508.09;;;10.93;100.00
63006;BME280;53704;52.532;6.426;2023-05-01T07:59:42;101503.41;;;11.41;100.00
63006;BME280;53704;52.532;6.426;2023-05-01T08:02:07;101508.56;;;11.34;100.00
63006;BME280;53704;52.532;6.426;2023-05-01T08:04:33;101501.25;;;11.27;100.00
63006;BME280;53704;52.532;6.426;2023-05-01T08:06:58;101504.66;;;11.65;100.00
63006;BME280;53704;52.532;6.426;2023-05-01T08:09:24;101505.19;;;11.50;100.00
63006;BME280;53704;52.532;6.426;2023-05-01T08:11:49;101501.78;;;11.12;100.00
63006;BME280;53704;52.532;6.426;2023-05-01T08:14:15;101503.28;;;11.79;100.00
63006;BME280;53704;52.532;6.426;2023-05-01T08:16:42;101497.19;;;11.94;100.00
63006;BME280;53704;52.532;6.426;2023-05-01T08:19:07;101501.41;;;12.15;100.00
63006;BME280;53704;52.532;6.426;2023-05-01T08:21:33;101496.69;;;12.43;100.00
63006;BME280;53704;52.532;6.426;2023-05-01T08:24:01;101497.22;;;12.47;100.00
63006;BME280;53704;52.532;6.426;2023-05-01T08:26:27;101498.88;;;12.74;100.00
63006;BME280;53704;52.532;6.426;2023-05-01T08:28:53;101499.50;;;13.02;100.00
63006;BME280;53704;52.532;6.426;2023-05-01T08:31:18;101502.78;;;12.80;100.00
63006;BME280;53704;52.532;6.426;2023-05-01T08:33:45;101501.41;;;13.18;100.00
63006;BME280;53704;52.532;6.426;2023-05-01T08:36:10;101500.56;;;13.18;100.00
63006;BME280;53704;52.532;6.426;2023-05-01T08:38:36;101497.75;;;12.85;100.00
63006;BME280;53704;52.532;6.426;2023-05-01T08:41:02;101497.66;;;13.03;100.00
63006;BME280;53704;52.532;6.426;2023-05-01T08:43:31;101495.16;;;13.26;100.00
63006;BME280;53704;52.532;6.426;2023-05-01T08:46:00;101491.19;;;13.55;100.00
63006;BME280;53704;52.532;6.426;2023-05-01T08:48:27;101488.16;;;13.58;100.00
63006;BME280;53704;52.532;6.426;2023-05-01T08:50:55;101492.19;;;13.37;100.00
63006;BME280;53704;52.532;6.426;2023-05-01T08:53:23;101497.81;;;13.69;100.00
63006;BME280;53704;52.532;6.426;2023-05-01T08:55:50;101492.91;;;14.05;100.00
63006;BME280;53704;52.532;6.426;2023-05-01T08:58:17;101490.56;;;13.78;100.00
63006;BME280;53704;52.532;6.426;2023-05-01T09:00:43;101489.81;;;14.41;100.00
63006;BME280;53704;52.532;6.426;2023-05-01T09:03:11;101489.09;;;14.72;100.00
63006;BME280;53704;52.532;6.426;2023-05-01T09:05:38;101493.69;;;15.03;100.00
63006;BME280;53704;52.532;6.426;2023-05-01T09:08:03;101495.41;;;15.27;100.00
63006;BME280;53704;52.532;6.426;2023-05-01T09:10:29;101488.16;;;15.19;100.00
63006;BME280;53704;52.532;6.426;2023-05-01T09:12:56;101491.41;;;15.69;100.00
63006;BME280;53704;52.532;6.426;2023-05-01T09:15:26;101490.31;;;15.32;100.00
63006;BME280;53704;52.532;6.426;2023-05-01T09:17:52;101488.38;;;15.41;100.00
63006;BME280;53704;52.532;6.426;2023-05-01T09:20:18;101488.31;;;15.72;100.00
63006;BME280;53704;52.532;6.426;2023-05-01T09:22:44;101484.13;;;16.08;94.73
63006;BME280;53704;52.532;6.426;2023-05-01T09:25:09;101488.50;;;15.71;94.99
63006;BME280;53704;52.532;6.426;2023-05-01T09:27:36;101495.13;;;16.30;95.62
63006;BME280;53704;52.532;6.426;2023-05-01T09:30:02;101489.34;;;16.33;90.09
63006;BME280;53704;52.532;6.426;2023-05-01T09:32:28;101490.00;;;16.64;97.65
63006;BME280;53704;52.532;6.426;2023-05-01T09:34:55;101482.69;;;16.50;88.62
63006;BME280;53704;52.532;6.426;2023-05-01T09:37:33;101482.88;;;17.30;91.87
63006;BME280;53704;52.532;6.426;2023-05-01T09:42:32;101478.75;;;16.97;84.75
63006;BME280;53704;52.532;6.426;2023-05-01T09:44:59;101485.38;;;17.10;82.24
63006;BME280;53704;52.532;6.426;2023-05-01T09:47:28;101468.59;;;17.43;84.90
63006;BME280;53704;52.532;6.426;2023-05-01T09:49:58;101467.88;;;16.82;82.76
63006;BME280;53704;52.532;6.426;2023-05-01T09:52:28;101464.03;;;16.77;78.05
63006;BME280;53704;52.532;6.426;2023-05-01T09:55:16;101461.13;;;16.93;75.76
63006;BME280;53704;52.532;6.426;2023-05-01T09:57:43;101466.28;;;16.88;72.96
63006;BME280;53704;52.532;6.426;2023-05-01T10:00:11;101463.09;;;16.85;67.89
63006;BME280;53704;52.532;6.426;2023-05-01T10:02:43;101467.13;;;17.04;66.24
63006;BME280;53704;52.532;6.426;2023-05-01T10:05:09;101462.47;;;17.41;59.13
63006;BME280;53704;52.532;6.426;2023-05-01T10:07:35;101457.22;;;18.04;61.77
63006;BME280;53704;52.532;6.426;2023-05-01T10:10:18;101459.69;;;17.34;54.35
63006;BME280;53704;52.532;6.426;2023-05-01T10:12:44;101463.19;;;17.71;62.27
63006;BME280;53704;52.532;6.426;2023-05-01T10:15:10;101458.00;;;18.26;58.43
63006;BME280;53704;52.532;6.426;2023-05-01T10:17:37;101469.16;;;17.81;56.27
63006;BME280;53704;52.532;6.426;2023-05-01T10:20:03;101467.53;;;17.87;59.70
63006;BME280;53704;52.532;6.426;2023-05-01T10:22:29;101462.16;;;17.29;55.91
63006;BME280;53704;52.532;6.426;2023-05-01T10:24:55;101452.91;;;17.45;56.37
63006;BME280;53704;52.532;6.426;2023-05-01T10:27:23;101455.78;;;16.70;59.75
63006;BME280;53704;52.532;6.426;2023-05-01T10:29:51;101455.59;;;17.02;53.74
63006;BME280;53704;52.532;6.426;2023-05-01T10:32:17;101454.84;;;17.51;52.50
63006;BME280;53704;52.532;6.426;2023-05-01T10:34:53;101454.31;;;17.84;54.19
63006;BME280;53704;52.532;6.426;2023-05-01T10:37:25;101448.53;;;18.57;54.55
63006;BME280;53704;52.532;6.426;2023-05-01T10:39:53;101439.44;;;18.43;51.20
63006;BME280;53704;52.532;6.426;2023-05-01T10:42:19;101451.13;;;18.72;53.14
63006;BME280;53704;52.532;6.426;2023-05-01T10:44:44;101449.13;;;18.11;49.58
63006;BME280;53704;52.532;6.426;2023-05-01T10:50:13;101449.97;;;18.53;55.89
63006;BME280;53704;52.532;6.426;2023-05-01T10:55:38;101454.31;;;18.12;51.60
63006;BME280;53704;52.532;6.426;2023-05-01T10:58:06;101453.59;;;18.25;56.73
63006;BME280;53704;52.532;6.426;2023-05-01T11:00:32;101457.16;;;19.02;56.91
63006;BME280;53704;52.532;6.426;2023-05-01T11:08:29;101456.03;;;18.48;58.29
63006;BME280;53704;52.532;6.426;2023-05-01T11:14:00;101458.69;;;18.35;58.19
63006;BME280;53704;52.532;6.426;2023-05-01T11:19:04;101456.59;;;18.37;60.84
63006;BME280;53704;52.532;6.426;2023-05-01T11:21:30;101458.56;;;17.65;59.56
63006;BME280;53704;52.532;6.426;2023-05-01T11:24:02;101458.22;;;17.75;61.24
63006;BME280;53704;52.532;6.426;2023-05-01T11:26:29;101456.84;;;18.14;61.74
63006;BME280;53704;52.532;6.426;2023-05-01T11:28:58;101457.69;;;17.86;58.95
63006;BME280;53704;52.532;6.426;2023-05-01T11:31:25;101456.81;;;18.35;62.02
63006;BME280;53704;52.532;6.426;2023-05-01T11:33:51;101463.56;;;18.39;55.70
63006;BME280;53704;52.532;6.426;2023-05-01T11:36:18;101454.78;;;18.16;56.43
63006;BME280;53704;52.532;6.426;2023-05-01T11:38:57;101450.63;;;18.55;56.51
63006;BME280;53704;52.532;6.426;2023-05-01T11:41:26;101455.72;;;19.13;61.19
63006;BME280;53704;52.532;6.426;2023-05-01T11:43:52;101454.28;;;18.34;57.22
63006;BME280;53704;52.532;6.426;2023-05-01T11:46:28;101447.75;;;19.11;56.44
63006;BME280;53704;52.532;6.426;2023-05-01T11:48:55;101441.44;;;19.04;55.38
63006;BME280;53704;52.532;6.426;2023-05-01T11:51:21;101447.22;;;18.88;54.68
63006;BME280;53704;52.532;6.426;2023-05-01T11:54:05;101436.97;;;18.90;54.86
63006;BME280;53704;52.532;6.426;2023-05-01T11:56:32;101429.56;;;20.12;54.74
63006;BME280;53704;52.532;6.426;2023-05-01T11:59:00;101437.47;;;19.13;54.20
63006;BME280;53704;52.532;6.426;2023-05-01T12:01:37;101440.63;;;19.24;57.77
63006;BME280;53704;52.532;6.426;2023-05-01T12:04:03;101436.09;;;19.78;56.76
63006;BME280;53704;52.532;6.426;2023-05-01T12:06:39;101425.03;;;20.65;57.06
63006;BME280;53704;52.532;6.426;2023-05-01T12:09:14;101441.97;;;19.55;53.22
63006;BME280;53704;52.532;6.426;2023-05-01T12:11:41;101429.75;;;20.17;52.55
63006;BME280;53704;52.532;6.426;2023-05-01T12:14:07;101419.47;;;20.85;53.20
63006;BME280;53704;52.532;6.426;2023-05-01T12:16:34;101416.28;;;20.36;56.07
63006;BME280;53704;52.532;6.426;2023-05-01T12:19:00;101424.19;;;20.64;51.64
63006;BME280;53704;52.532;6.426;2023-05-01T12:21:26;101419.25;;;20.86;52.35
63006;BME280;53704;52.532;6.426;2023-05-01T12:23:52;101422.78;;;20.93;51.20
63006;BME280;53704;52.532;6.426;2023-05-01T12:26:22;101425.81;;;21.56;53.49
63006;BME280;53704;52.532;6.426;2023-05-01T12:28:58;101431.03;;;21.89;53.15
63006;BME280;53704;52.532;6.426;2023-05-01T12:31:24;101420.88;;;21.32;53.66
63006;BME280;53704;52.532;6.426;2023-05-01T12:33:58;101422.91;;;20.67;52.50
63006;BME280;53704;52.532;6.426;2023-05-01T12:36:25;101419.78;;;21.72;54.63
63006;BME280;53704;52.532;6.426;2023-05-01T12:38:55;101420.06;;;20.28;52.66
63006;BME280;53704;52.532;6.426;2023-05-01T12:41:31;101416.44;;;21.00;51.70
63006;BME280;53704;52.532;6.426;2023-05-01T12:43:56;101419.44;;;20.91;50.92
63006;BME280;53704;52.532;6.426;2023-05-01T12:46:22;101420.19;;;21.12;50.56
63006;BME280;53704;52.532;6.426;2023-05-01T12:48:47;101419.91;;;20.82;50.83
63006;BME280;53704;52.532;6.426;2023-05-01T12:51:20;101416.63;;;20.46;52.03
63006;BME280;53704;52.532;6.426;2023-05-01T12:53:45;101425.56;;;20.87;53.01
63006;BME280;53704;52.532;6.426;2023-05-01T12:56:21;101423.13;;;20.58;51.13
63006;BME280;53704;52.532;6.426;2023-05-01T12:58:47;101428.03;;;19.23;51.11
63006;BME280;53704;52.532;6.426;2023-05-01T13:01:23;101422.78;;;20.93;52.16
63006;BME280;53704;52.532;6.426;2023-05-01T13:03:50;101412.69;;;20.29;51.69
63006;BME280;53704;52.532;6.426;2023-05-01T13:06:16;101418.53;;;20.52;52.17
63006;BME280;53704;52.532;6.426;2023-05-01T13:08:41;101411.78;;;21.07;49.10
63006;BME280;53704;52.532;6.426;2023-05-01T13:11:14;101404.72;;;21.56;51.15
63006;BME280;53704;52.532;6.426;2023-05-01T13:13:42;101403.09;;;22.43;50.81
63006;BME280;53704;52.532;6.426;2023-05-01T13:16:15;101403.47;;;22.46;52.43
63006;BME280;53704;52.532;6.426;2023-05-01T13:18:48;101395.81;;;22.48;47.52